Bei Facebook empfehlenBei Twitter postenGoogle plusPinterest

Das Wetter im Erzgebirge am 27.01.2016

Wetter und Klima am 27.01.2016 Holzhau im Erzgebirge (630m ü.NN)
Letzte gemessene Temperatur und Uhrzeit der Messung23:45:00 Uhr7.80 °C
Temperatur (Maximum / Höchstwert) und Uhrzeit der Messung14:00:00 Uhr10.30 °C
Temperatur (Minimum / Tiefstwert) und Uhrzeit der Messung08:15:005.60 °C
Errechneter Absolutwert der Temperaturschwankungen zwischen Tmin und Tmax des Tages4.70 K
Errechnete Tagesmitteltemperatur7.57396 °C
Gesamt - Niederschlag des Tages (in flüssiger Form)0.00 Liter / m²
Luftdruck (Maximum / Höchstwert) und Zeitpunkt der Messung00:00:00 Uhr1016.50 hPa
Luftdruck (Minimum / Tiefstwert) und Zeitpunkt der Messung23:45:00 Uhr1012.00 hPa
Errechneter Absolutwert der Luftdruckschwankungen des Tages4.50 hPa
Höchste gemessene Windgeschwindigkeit und Uhrzeit der Messung20:30:00 Uhr20.52 km/h
Errechnete Windhäufigkeit in Relation zu den Messwerten des Tages53.12500 %
Niedrigste Windkühle (Windchill) und Zeitpunkt der Messung00:00:00 Uhr2.50 °C
Taupunkt (Maximum / Höchstwert) und Uhrzeit der Messung12:00:00 Uhr6.30 °C
Taupunkt (Minimum / Tiefstwert) und Uhrzeit der Messung07:30:002.50 °C
Anzahl der automatisch eingelesenen Messwerte 96

Detaillierte Wetter- und Klima- Messwerte für den 27.01.2016 in Holzhau im Erzgebirge (630m ü.NN)
ZeitTemperaturLuftdruckRel. LuftfeuchteWindWindrichtungWindchillTaupunktNiederschlag l/m²
23:45:007.80 °C1012.00 hPa71.00 %2.90 °C 
23:30:007.60 °C1012.10 hPa71.00 %2.70 °C 
23:15:007.90 °C1012.40 hPa71.00 %3.00 °C 
23:00:007.90 °C1012.50 hPa69.00 %3.60 km/hSW7.90 °C2.60 °C 
22:45:008.50 °C1012.50 hPa69.00 %3.10 °C 
22:30:008.40 °C1012.60 hPa69.00 %3.24 km/hW8.40 °C3.10 °C 
22:15:008.40 °C1012.80 hPa69.00 %3.10 °C 
22:00:008.50 °C1012.80 hPa68.00 %2.90 °C 
21:45:008.80 °C1012.90 hPa68.00 %7.92 km/hWNW7.60 °C3.20 °C 
21:30:008.80 °C1013.00 hPa69.00 %9.00 km/hWNW7.40 °C3.40 °C 
21:15:008.80 °C1013.10 hPa69.00 %7.92 km/hW7.60 °C3.40 °C 
21:00:008.60 °C1013.00 hPa70.00 %3.40 °C 
20:45:008.70 °C1012.80 hPa70.00 %10.80 km/hNW6.90 °C3.50 °C 
20:30:008.70 °C1012.80 hPa71.00 %20.52 km/hSSW5.70 °C3.70 °C 
20:15:008.80 °C1012.90 hPa72.00 %11.16 km/hNW7.00 °C4.00 °C 
20:00:008.50 °C1013.10 hPa74.00 %9.00 km/hWSW7.00 °C4.10 °C 
19:45:008.10 °C1013.20 hPa76.00 %6.48 km/hWNW7.20 °C4.10 °C 
19:30:008.10 °C1013.50 hPa76.00 %10.44 km/hSW6.30 °C4.10 °C 
19:15:007.80 °C1013.60 hPa77.00 %4.00 °C 
19:00:007.80 °C1013.60 hPa76.00 %2.16 km/hSW7.80 °C3.80 °C 
18:45:007.80 °C1013.50 hPa76.00 %4.32 km/hSW7.80 °C3.80 °C 
18:30:007.90 °C1013.90 hPa76.00 %3.90 °C 
18:15:007.90 °C1014.00 hPa75.00 %3.80 °C 
18:00:008.10 °C1013.70 hPa75.00 %3.90 °C 
17:45:008.10 °C1013.90 hPa75.00 %3.90 °C 
17:30:008.10 °C1014.00 hPa75.00 %4.32 km/hSSW8.10 °C3.90 °C 
17:15:007.90 °C1014.10 hPa74.00 %3.60 °C 
17:00:008.20 °C1014.20 hPa73.00 %5.76 km/hSSW7.50 °C3.70 °C 
16:45:008.60 °C1014.10 hPa72.00 %3.80 °C 
16:30:008.80 °C1014.00 hPa72.00 %4.00 °C 
16:15:008.90 °C1014.10 hPa72.00 %4.10 °C 
16:00:009.20 °C1013.90 hPa71.00 %2.88 km/hWNW9.20 °C4.20 °C 
15:45:009.50 °C1013.70 hPa71.00 %15.48 km/hWSW7.20 °C4.50 °C 
15:30:009.70 °C1013.70 hPa70.00 %10.80 km/hWNW8.10 °C4.50 °C 
15:15:009.80 °C1013.60 hPa71.00 %6.48 km/hW9.10 °C4.80 °C 
15:00:009.90 °C1013.80 hPa72.00 %2.88 km/hWSW9.90 °C5.10 °C 
14:45:009.90 °C1013.90 hPa72.00 %3.96 km/hNW9.90 °C5.10 °C 
14:30:0010.00 °C1014.00 hPa73.00 %9.72 km/hWNW8.70 °C5.40 °C 
14:15:0010.20 °C1013.70 hPa73.00 %5.40 km/hW9.90 °C5.60 °C 
14:00:0010.30 °C1013.80 hPa74.00 %5.90 °C 
13:45:0010.10 °C1013.90 hPa75.00 %5.90 °C 
13:30:009.60 °C1014.10 hPa76.00 %15.84 km/hNW7.30 °C5.60 °C 
13:15:009.40 °C1014.20 hPa76.00 %9.36 km/hSW8.00 °C5.40 °C 
13:00:009.30 °C1014.20 hPa76.00 %5.04 km/hSSW8.90 °C5.30 °C 
12:45:009.30 °C1014.40 hPa76.00 %9.72 km/hSSW7.80 °C5.30 °C 
12:30:009.50 °C1014.70 hPa77.00 %7.20 km/hSW8.60 °C5.70 °C 
12:15:009.80 °C1014.80 hPa78.00 %6.20 °C 
12:00:009.60 °C1015.10 hPa80.00 %5.04 km/hWNW9.30 °C6.30 °C 
11:45:008.90 °C1015.20 hPa82.00 %6.00 °C 
11:30:007.90 °C1015.60 hPa82.00 %2.52 km/hSSW7.90 °C5.00 °C 
11:15:007.80 °C1016.00 hPa82.00 %3.60 km/hSW7.80 °C4.90 °C 
11:00:007.80 °C1016.20 hPa83.00 %10.80 km/hWSW5.90 °C5.10 °C 
10:45:007.20 °C1016.10 hPa84.00 %5.04 km/hNNW6.60 °C4.70 °C 
10:30:007.00 °C1016.10 hPa84.00 %4.50 °C 
10:15:007.00 °C1016.10 hPa84.00 %4.50 °C 
10:00:006.90 °C1015.90 hPa84.00 %4.40 °C 
09:45:006.80 °C1015.70 hPa84.00 %4.30 °C 
09:30:006.90 °C1015.40 hPa84.00 %4.40 °C 
09:15:006.80 °C1015.20 hPa84.00 %2.16 km/hNNW6.80 °C4.30 °C 
09:00:006.60 °C1015.20 hPa84.00 %4.10 °C 
08:45:006.20 °C1015.20 hPa84.00 %3.70 °C 
08:30:005.80 °C1015.00 hPa83.00 %3.10 °C 
08:15:005.60 °C1014.80 hPa82.00 %2.80 °C 
08:00:005.80 °C1014.80 hPa81.00 %2.80 °C 
07:45:005.80 °C1014.70 hPa80.00 %7.20 km/hW4.30 °C2.60 °C 
07:30:005.90 °C1014.90 hPa79.00 %2.52 km/hWNW5.90 °C2.50 °C 
07:15:006.20 °C1014.80 hPa79.00 %4.32 km/hW6.20 °C2.80 °C 
07:00:006.20 °C1015.00 hPa78.00 %2.70 °C 
06:45:006.10 °C1014.90 hPa78.00 %2.16 km/hW6.10 °C2.60 °C 
06:30:006.40 °C1014.70 hPa78.00 %5.40 km/hWNW5.50 °C2.90 °C 
06:15:006.40 °C1014.40 hPa78.00 %2.90 °C 
06:00:006.40 °C1014.50 hPa78.00 %2.90 °C 
05:45:006.10 °C1014.80 hPa79.00 %13.68 km/hWSW3.30 °C2.70 °C 
05:30:006.00 °C1014.60 hPa78.00 %2.50 °C 
05:15:006.20 °C1014.40 hPa78.00 %2.70 °C 
05:00:006.30 °C1015.00 hPa78.00 %2.80 °C 
04:45:006.20 °C1014.90 hPa79.00 %2.80 °C 
04:30:006.20 °C1015.00 hPa79.00 %3.24 km/hW6.20 °C2.80 °C 
04:15:006.40 °C1014.90 hPa80.00 %2.52 km/hNW6.40 °C3.20 °C 
04:00:006.40 °C1014.90 hPa82.00 %6.12 km/hW5.30 °C3.60 °C 
03:45:006.10 °C1014.80 hPa85.00 %3.24 km/hWNW6.10 °C3.80 °C 
03:30:006.20 °C1014.90 hPa86.00 %1.80 km/hW6.20 °C4.00 °C 
03:15:005.90 °C1014.90 hPa87.00 %3.90 °C 
03:00:005.90 °C1015.20 hPa88.00 %4.10 °C 
02:45:005.80 °C1015.20 hPa89.00 %4.10 °C 
02:30:005.70 °C1015.20 hPa89.00 %4.00 °C 
02:15:005.80 °C1015.50 hPa90.00 %4.30 °C 
02:00:005.80 °C1015.30 hPa90.00 %3.24 km/hW5.80 °C4.30 °C 
01:45:005.70 °C1015.80 hPa90.00 %4.20 °C 
01:30:005.80 °C1015.80 hPa91.00 %3.96 km/hW5.80 °C4.40 °C 
01:15:005.90 °C1015.80 hPa91.00 %4.50 °C 
01:00:006.10 °C1015.80 hPa91.00 %9.36 km/hWSW4.10 °C4.70 °C 
00:45:005.90 °C1016.10 hPa92.00 %10.80 km/hW3.60 °C4.70 °C 
00:30:006.10 °C1016.20 hPa92.00 %4.90 °C 
00:15:006.10 °C1016.10 hPa92.00 %11.52 km/hWSW3.70 °C4.90 °C 
00:00:006.20 °C1016.50 hPa93.00 %20.52 km/hW2.50 °C5.20 °C 

Permanenter Link zu dieser Seite: Wetter im Erzgebirge am 27.01.2016
Performance-Info: Die Erstellung der Seite / Statistik(en) / Tabelle(n) erforderte 5 Datenbankserver-Abfrage(n) und dauerte 122 Millisekunden. (Dieser Messwert ist von der Gesamt-Auslastung des Servers abhängig.)
Erzgebirge - Wetter | Erzgebirge - Wetter (Mobilgeräte) | Komplette Klimadatenbank